sensor_id;sensor_type;location;lat;lon;timestamp;P1;durP1;ratioP1;P2;durP2;ratioP2
9234;SDS011;4652;42.716;23.218;2023-11-21T02:07:59;12.07;;;8.93;;
9234;SDS011;4652;42.716;23.218;2023-11-21T08:45:08;29.20;;;19.13;;
9234;SDS011;4652;42.716;23.218;2023-11-21T08:51:51;26.43;;;18.90;;
9234;SDS011;4652;42.716;23.218;2023-11-21T08:58:35;25.03;;;18.20;;
9234;SDS011;4652;42.716;23.218;2023-11-21T09:05:20;25.50;;;19.23;;
9234;SDS011;4652;42.716;23.218;2023-11-21T09:12:03;34.33;;;23.30;;
9234;SDS011;4652;42.716;23.218;2023-11-21T09:18:45;33.37;;;23.50;;
9234;SDS011;4652;42.716;23.218;2023-11-21T09:25:29;33.03;;;25.80;;
9234;SDS011;4652;42.716;23.218;2023-11-21T09:32:11;40.80;;;24.87;;
9234;SDS011;4652;42.716;23.218;2023-11-21T09:38:54;33.33;;;24.57;;
9234;SDS011;4652;42.716;23.218;2023-11-21T09:45:38;30.90;;;23.17;;
9234;SDS011;4652;42.716;23.218;2023-11-21T09:52:22;34.63;;;22.90;;
9234;SDS011;4652;42.716;23.218;2023-11-21T09:59:06;31.40;;;25.37;;
9234;SDS011;4652;42.716;23.218;2023-11-21T10:05:53;34.77;;;28.17;;
9234;SDS011;4652;42.716;23.218;2023-11-21T10:12:39;39.97;;;31.17;;
9234;SDS011;4652;42.716;23.218;2023-11-21T10:19:24;36.00;;;28.23;;
9234;SDS011;4652;42.716;23.218;2023-11-21T10:26:09;37.73;;;27.87;;
9234;SDS011;4652;42.716;23.218;2023-11-21T10:32:58;38.23;;;26.50;;
9234;SDS011;4652;42.716;23.218;2023-11-21T10:39:42;37.07;;;27.53;;
9234;SDS011;4652;42.716;23.218;2023-11-21T10:46:27;38.70;;;27.23;;
9234;SDS011;4652;42.716;23.218;2023-11-21T10:53:10;39.20;;;28.00;;
9234;SDS011;4652;42.716;23.218;2023-11-21T10:59:53;36.03;;;25.77;;
9234;SDS011;4652;42.716;23.218;2023-11-21T11:06:39;36.43;;;27.33;;
9234;SDS011;4652;42.716;23.218;2023-11-21T11:13:23;39.47;;;29.63;;
9234;SDS011;4652;42.716;23.218;2023-11-21T11:20:06;41.33;;;31.53;;
9234;SDS011;4652;42.716;23.218;2023-11-21T11:26:55;39.93;;;29.87;;
9234;SDS011;4652;42.716;23.218;2023-11-21T11:33:45;45.53;;;31.77;;
9234;SDS011;4652;42.716;23.218;2023-11-21T11:40:41;37.57;;;29.23;;
9234;SDS011;4652;42.716;23.218;2023-11-21T11:47:28;64.53;;;43.60;;
9234;SDS011;4652;42.716;23.218;2023-11-21T11:54:14;46.00;;;31.50;;
9234;SDS011;4652;42.716;23.218;2023-11-21T12:00:57;32.17;;;24.67;;
9234;SDS011;4652;42.716;23.218;2023-11-21T12:07:47;29.73;;;20.60;;
9234;SDS011;4652;42.716;23.218;2023-11-21T12:14:33;32.67;;;21.90;;
9234;SDS011;4652;42.716;23.218;2023-11-21T12:21:17;23.43;;;17.20;;
9234;SDS011;4652;42.716;23.218;2023-11-21T12:28:02;33.50;;;22.50;;
9234;SDS011;4652;42.716;23.218;2023-11-21T12:34:46;25.87;;;19.37;;
9234;SDS011;4652;42.716;23.218;2023-11-21T12:41:28;37.37;;;24.40;;
9234;SDS011;4652;42.716;23.218;2023-11-21T12:48:12;28.23;;;17.20;;
9234;SDS011;4652;42.716;23.218;2023-11-21T12:54:55;26.23;;;19.07;;
9234;SDS011;4652;42.716;23.218;2023-11-21T13:01:38;20.50;;;16.80;;
9234;SDS011;4652;42.716;23.218;2023-11-21T13:08:21;19.57;;;16.10;;
9234;SDS011;4652;42.716;23.218;2023-11-21T13:15:05;24.30;;;18.00;;
9234;SDS011;4652;42.716;23.218;2023-11-21T13:21:48;29.47;;;21.10;;
9234;SDS011;4652;42.716;23.218;2023-11-21T13:28:32;24.07;;;15.23;;
9234;SDS011;4652;42.716;23.218;2023-11-21T13:35:15;17.13;;;13.20;;
9234;SDS011;4652;42.716;23.218;2023-11-21T13:42:04;16.60;;;12.10;;
9234;SDS011;4652;42.716;23.218;2023-11-21T13:48:48;19.70;;;15.27;;
9234;SDS011;4652;42.716;23.218;2023-11-21T13:55:36;24.13;;;17.20;;
9234;SDS011;4652;42.716;23.218;2023-11-21T14:08:00;25.43;;;18.20;;
9234;SDS011;4652;42.716;23.218;2023-11-21T14:14:44;22.57;;;16.90;;
9234;SDS011;4652;42.716;23.218;2023-11-21T14:21:27;25.23;;;18.03;;
9234;SDS011;4652;42.716;23.218;2023-11-21T14:28:11;19.60;;;15.67;;
9234;SDS011;4652;42.716;23.218;2023-11-21T14:34:53;23.67;;;16.13;;
9234;SDS011;4652;42.716;23.218;2023-11-21T14:41:35;19.73;;;14.53;;
9234;SDS011;4652;42.716;23.218;2023-11-21T14:48:20;19.23;;;14.33;;
9234;SDS011;4652;42.716;23.218;2023-11-21T14:55:16;18.50;;;14.63;;
9234;SDS011;4652;42.716;23.218;2023-11-21T15:02:06;21.20;;;15.53;;
9234;SDS011;4652;42.716;23.218;2023-11-21T15:08:58;24.87;;;17.67;;
9234;SDS011;4652;42.716;23.218;2023-11-21T15:15:58;24.13;;;17.67;;
9234;SDS011;4652;42.716;23.218;2023-11-21T15:22:47;27.50;;;18.47;;
9234;SDS011;4652;42.716;23.218;2023-11-21T15:29:32;22.10;;;15.47;;
9234;SDS011;4652;42.716;23.218;2023-11-21T15:36:14;48.07;;;31.40;;
9234;SDS011;4652;42.716;23.218;2023-11-21T15:42:56;41.93;;;27.73;;
9234;SDS011;4652;42.716;23.218;2023-11-21T15:49:40;50.63;;;32.67;;
9234;SDS011;4652;42.716;23.218;2023-11-21T15:56:22;41.30;;;31.97;;
9234;SDS011;4652;42.716;23.218;2023-11-21T16:03:06;46.37;;;37.07;;
9234;SDS011;4652;42.716;23.218;2023-11-21T16:09:51;39.83;;;29.03;;
9234;SDS011;4652;42.716;23.218;2023-11-21T16:16:33;39.50;;;27.73;;
9234;SDS011;4652;42.716;23.218;2023-11-21T16:23:16;38.97;;;27.10;;
9234;SDS011;4652;42.716;23.218;2023-11-21T16:29:59;46.07;;;30.30;;
9234;SDS011;4652;42.716;23.218;2023-11-21T16:36:44;49.73;;;33.70;;
9234;SDS011;4652;42.716;23.218;2023-11-21T16:43:26;68.93;;;50.20;;
9234;SDS011;4652;42.716;23.218;2023-11-21T16:50:10;93.97;;;60.53;;
9234;SDS011;4652;42.716;23.218;2023-11-21T16:56:52;79.43;;;56.03;;
9234;SDS011;4652;42.716;23.218;2023-11-21T17:03:35;110.87;;;70.47;;
9234;SDS011;4652;42.716;23.218;2023-11-21T17:10:18;94.57;;;58.27;;
9234;SDS011;4652;42.716;23.218;2023-11-21T17:17:02;86.67;;;56.93;;
9234;SDS011;4652;42.716;23.218;2023-11-21T17:23:48;90.97;;;60.20;;
9234;SDS011;4652;42.716;23.218;2023-11-21T17:30:32;84.90;;;58.50;;
9234;SDS011;4652;42.716;23.218;2023-11-21T17:37:14;76.03;;;55.90;;
9234;SDS011;4652;42.716;23.218;2023-11-21T17:43:57;70.17;;;49.37;;
9234;SDS011;4652;42.716;23.218;2023-11-21T17:50:43;59.47;;;44.37;;
9234;SDS011;4652;42.716;23.218;2023-11-21T17:57:26;66.33;;;45.30;;
9234;SDS011;4652;42.716;23.218;2023-11-21T18:04:08;62.53;;;42.97;;
9234;SDS011;4652;42.716;23.218;2023-11-21T18:10:53;61.07;;;41.73;;
9234;SDS011;4652;42.716;23.218;2023-11-21T18:17:35;62.47;;;40.97;;
9234;SDS011;4652;42.716;23.218;2023-11-21T18:40:09;59.50;;;41.93;;
9234;SDS011;4652;42.716;23.218;2023-11-21T18:46:52;60.43;;;43.80;;
9234;SDS011;4652;42.716;23.218;2023-11-21T18:53:34;68.07;;;46.77;;
9234;SDS011;4652;42.716;23.218;2023-11-21T19:00:19;63.93;;;44.27;;
9234;SDS011;4652;42.716;23.218;2023-11-21T19:07:02;71.73;;;47.60;;
9234;SDS011;4652;42.716;23.218;2023-11-21T19:13:46;73.17;;;49.47;;
9234;SDS011;4652;42.716;23.218;2023-11-21T19:20:30;65.67;;;44.40;;
9234;SDS011;4652;42.716;23.218;2023-11-21T19:27:13;70.70;;;46.53;;
9234;SDS011;4652;42.716;23.218;2023-11-21T19:33:55;62.90;;;43.40;;
9234;SDS011;4652;42.716;23.218;2023-11-21T19:40:39;60.73;;;43.97;;
9234;SDS011;4652;42.716;23.218;2023-11-21T19:47:24;55.07;;;37.83;;
9234;SDS011;4652;42.716;23.218;2023-11-21T19:54:06;59.57;;;43.43;;
9234;SDS011;4652;42.716;23.218;2023-11-21T20:45:08;35.80;;;27.17;;
9234;SDS011;4652;42.716;23.218;2023-11-21T20:51:53;45.23;;;29.07;;
9234;SDS011;4652;42.716;23.218;2023-11-21T20:58:36;36.20;;;24.57;;
9234;SDS011;4652;42.716;23.218;2023-11-21T21:05:22;36.70;;;25.73;;
9234;SDS011;4652;42.716;23.218;2023-11-21T21:12:06;35.77;;;26.23;;
9234;SDS011;4652;42.716;23.218;2023-11-21T21:18:51;38.80;;;24.37;;
9234;SDS011;4652;42.716;23.218;2023-11-21T21:25:36;36.53;;;25.10;;
9234;SDS011;4652;42.716;23.218;2023-11-21T21:32:18;27.30;;;22.10;;
9234;SDS011;4652;42.716;23.218;2023-11-21T21:39:00;27.53;;;20.67;;
9234;SDS011;4652;42.716;23.218;2023-11-21T21:45:44;31.23;;;24.10;;
9234;SDS011;4652;42.716;23.218;2023-11-21T21:52:33;28.10;;;20.87;;
9234;SDS011;4652;42.716;23.218;2023-11-21T21:59:16;27.00;;;19.67;;
9234;SDS011;4652;42.716;23.218;2023-11-21T22:05:59;25.17;;;19.73;;
9234;SDS011;4652;42.716;23.218;2023-11-21T22:12:41;26.07;;;19.40;;
9234;SDS011;4652;42.716;23.218;2023-11-21T22:19:24;24.17;;;18.27;;
9234;SDS011;4652;42.716;23.218;2023-11-21T22:26:08;22.90;;;18.87;;
9234;SDS011;4652;42.716;23.218;2023-11-21T22:32:51;27.67;;;20.23;;
9234;SDS011;4652;42.716;23.218;2023-11-21T22:39:36;27.00;;;19.80;;
9234;SDS011;4652;42.716;23.218;2023-11-21T22:46:21;24.53;;;19.70;;
9234;SDS011;4652;42.716;23.218;2023-11-21T22:53:03;24.70;;;19.17;;
9234;SDS011;4652;42.716;23.218;2023-11-21T22:59:45;25.63;;;18.93;;
9234;SDS011;4652;42.716;23.218;2023-11-21T23:06:32;29.70;;;21.60;;
9234;SDS011;4652;42.716;23.218;2023-11-21T23:13:14;30.50;;;22.00;;
9234;SDS011;4652;42.716;23.218;2023-11-21T23:19:59;29.13;;;18.10;;
9234;SDS011;4652;42.716;23.218;2023-11-21T23:26:48;25.17;;;19.50;;
9234;SDS011;4652;42.716;23.218;2023-11-21T23:33:30;25.87;;;17.83;;
9234;SDS011;4652;42.716;23.218;2023-11-21T23:40:12;23.97;;;17.47;;
9234;SDS011;4652;42.716;23.218;2023-11-21T23:46:56;21.90;;;16.93;;
9234;SDS011;4652;42.716;23.218;2023-11-21T23:53:39;21.90;;;16.30;;
